createdAt,value
2023-02-18T00:00:29.341Z,33.95
2023-02-18T00:02:55.743Z,35.47
2023-02-18T00:05:22.563Z,33.65
2023-02-18T00:07:48.880Z,43.17
2023-02-18T00:10:15.986Z,31.85
2023-02-18T00:12:43.141Z,34.42
2023-02-18T00:15:10.073Z,32.50
2023-02-18T00:17:36.683Z,32.80
2023-02-18T00:20:03.844Z,34.50
2023-02-18T00:22:30.123Z,29.40
2023-02-18T00:24:56.461Z,33.53
2023-02-18T00:27:23.027Z,40.00
2023-02-18T00:29:49.357Z,32.35
2023-02-18T00:32:15.792Z,32.63
2023-02-18T00:34:42.116Z,44.85
2023-02-18T00:37:08.466Z,44.88
2023-02-18T00:39:34.760Z,45.47
2023-02-18T00:42:01.200Z,41.13
2023-02-18T00:44:27.540Z,45.07
2023-02-18T00:46:53.989Z,53.53
2023-02-18T00:49:20.425Z,59.20
2023-02-18T00:51:46.806Z,48.60
2023-02-18T00:54:13.191Z,57.03
2023-02-18T00:56:39.612Z,53.20
2023-02-18T00:59:06.128Z,56.65
2023-02-18T01:01:32.600Z,64.80
2023-02-18T01:03:58.982Z,51.50
2023-02-18T01:06:25.523Z,56.75
2023-02-18T01:08:51.961Z,54.73
2023-02-18T01:11:18.687Z,52.65
2023-02-18T01:13:46.136Z,52.25
2023-02-18T01:16:13.479Z,56.92
2023-02-18T01:18:40.593Z,60.40
2023-02-18T01:21:08.775Z,53.03
2023-02-18T01:23:36.596Z,52.10
2023-02-18T01:26:03.156Z,57.67
2023-02-18T01:28:29.611Z,64.47
2023-02-18T01:30:56.069Z,61.90
2023-02-18T01:33:22.556Z,57.97
2023-02-18T01:35:49.366Z,57.17
2023-02-18T01:38:15.859Z,65.03
2023-02-18T01:40:49.041Z,63.63
2023-02-18T01:43:15.705Z,65.50
2023-02-18T01:46:19.871Z,74.97
2023-02-18T01:48:48.551Z,75.03
2023-02-18T01:51:18.994Z,81.53
2023-02-18T01:53:57.831Z,88.35
2023-02-18T01:57:05.907Z,75.35
2023-02-18T01:59:46.301Z,69.93
2023-02-18T02:02:15.848Z,79.60
2023-02-18T02:04:43.020Z,90.20
2023-02-18T02:07:10.215Z,82.00
2023-02-18T02:09:38.382Z,86.55
2023-02-18T02:12:31.610Z,90.60
2023-02-18T02:14:57.903Z,92.75
2023-02-18T02:17:34.110Z,81.78
2023-02-18T02:20:14.636Z,86.22
2023-02-18T02:22:54.489Z,91.32
2023-02-18T02:25:36.434Z,83.30
2023-02-18T02:28:20.845Z,89.53
2023-02-18T02:30:59.143Z,97.90
2023-02-18T02:33:43.115Z,75.20
2023-02-18T02:36:18.209Z,93.72
2023-02-18T02:38:55.072Z,81.17
2023-02-18T02:41:52.533Z,81.03
2023-02-18T02:44:34.882Z,82.45
2023-02-18T02:47:14.486Z,97.30
2023-02-18T02:50:02.286Z,95.13
2023-02-18T02:52:32.952Z,78.23
2023-02-18T02:54:59.546Z,85.13
2023-02-18T02:57:25.926Z,89.95
2023-02-18T02:59:58.716Z,82.93
2023-02-18T03:02:44.075Z,82.70
2023-02-18T03:05:25.194Z,81.23
2023-02-18T03:08:06.284Z,80.70
2023-02-18T03:10:41.595Z,82.97
2023-02-18T03:13:15.799Z,78.93
2023-02-18T03:16:26.545Z,79.88
2023-02-18T03:18:52.967Z,90.83
2023-02-18T03:21:27.328Z,87.68
2023-02-18T03:24:00.134Z,92.85
2023-02-18T03:26:29.272Z,93.07
2023-02-18T03:28:59.785Z,83.07
2023-02-18T03:31:31.434Z,82.33
2023-02-18T03:34:09.594Z,80.75
2023-02-18T03:36:36.904Z,86.50
2023-02-18T03:39:08.665Z,83.70
2023-02-18T03:41:35.671Z,82.47
2023-02-18T03:44:06.668Z,78.90
2023-02-18T03:46:34.596Z,77.22
2023-02-18T03:49:01.800Z,86.97
2023-02-18T03:51:28.321Z,81.70
2023-02-18T03:53:54.767Z,86.97
2023-02-18T03:56:21.285Z,91.23
2023-02-18T03:58:47.629Z,67.95
2023-02-18T04:01:15.103Z,57.67
2023-02-18T04:03:42.000Z,61.83
2023-02-18T04:06:09.131Z,44.72
2023-02-18T04:08:35.964Z,46.37
2023-02-18T04:11:02.369Z,39.97
2023-02-18T04:13:28.913Z,33.55
2023-02-18T04:15:55.231Z,30.02
2023-02-18T04:18:21.726Z,27.38
2023-02-18T04:20:48.242Z,23.93
2023-02-18T04:23:15.052Z,21.15
2023-02-18T04:25:41.799Z,19.42
2023-02-18T04:28:08.223Z,19.58
2023-02-18T04:30:34.746Z,20.00
2023-02-18T04:33:01.151Z,18.70
2023-02-18T04:35:27.556Z,20.02
2023-02-18T04:37:53.872Z,16.90
2023-02-18T04:40:20.572Z,15.88
2023-02-18T04:42:46.981Z,18.02
2023-02-18T04:45:13.433Z,17.67
2023-02-18T04:47:40.117Z,16.45
2023-02-18T04:50:07.288Z,19.50
2023-02-18T04:52:33.573Z,17.23
2023-02-18T04:54:59.881Z,19.52
2023-02-18T04:57:26.247Z,17.30
2023-02-18T04:59:52.622Z,18.42
2023-02-18T05:02:19.016Z,19.70
2023-02-18T05:04:45.425Z,19.67
2023-02-18T05:07:11.748Z,20.95
2023-02-18T05:09:38.198Z,22.20
2023-02-18T05:12:04.722Z,21.45
2023-02-18T05:14:31.143Z,25.90
2023-02-18T05:16:57.632Z,25.67
2023-02-18T05:19:23.981Z,25.50
2023-02-18T05:21:50.393Z,23.30
2023-02-18T05:24:16.716Z,23.70
2023-02-18T05:26:43.101Z,26.45
2023-02-18T05:29:09.549Z,22.42
2023-02-18T05:31:36.011Z,28.20
2023-02-18T05:34:02.473Z,23.53
2023-02-18T05:36:28.922Z,27.30
2023-02-18T05:38:55.240Z,30.88
2023-02-18T05:41:21.680Z,33.88
2023-02-18T05:43:48.100Z,26.45
2023-02-18T05:46:14.616Z,30.73
2023-02-18T05:48:41.051Z,39.13
2023-02-18T05:51:07.559Z,29.75
2023-02-18T05:53:33.904Z,32.75
2023-02-18T05:56:00.344Z,33.00
2023-02-18T05:58:26.710Z,29.93
2023-02-18T06:00:53.204Z,39.10
2023-02-18T06:03:19.519Z,38.83
2023-02-18T06:05:50.016Z,31.45
2023-02-18T06:08:16.511Z,31.40
2023-02-18T06:10:42.922Z,31.50
2023-02-18T06:13:10.330Z,38.05
2023-02-18T06:15:36.759Z,32.55
2023-02-18T06:18:03.298Z,37.38
2023-02-18T06:20:29.591Z,31.60
2023-02-18T06:22:55.859Z,35.57
2023-02-18T06:25:22.536Z,30.60
2023-02-18T06:27:48.892Z,30.17
2023-02-18T06:30:15.482Z,31.98
2023-02-18T06:32:41.857Z,26.45
2023-02-18T06:35:08.153Z,28.07
2023-02-18T06:37:34.479Z,31.88
2023-02-18T06:40:00.836Z,28.88
2023-02-18T06:42:27.306Z,32.13
2023-02-18T06:44:53.645Z,24.02
2023-02-18T06:47:20.043Z,25.53
2023-02-18T06:49:46.506Z,29.42
2023-02-18T06:52:12.932Z,29.88
2023-02-18T06:54:39.609Z,31.55
2023-02-18T06:57:05.963Z,29.58
2023-02-18T06:59:32.334Z,30.23
2023-02-18T07:01:58.792Z,30.42
2023-02-18T07:04:25.347Z,26.48
2023-02-18T07:06:51.701Z,31.58
2023-02-18T07:09:18.127Z,31.38
2023-02-18T07:11:44.431Z,33.03
2023-02-18T07:14:10.779Z,30.88
2023-02-18T07:16:37.238Z,32.05
2023-02-18T07:19:03.570Z,25.08
2023-02-18T07:21:29.953Z,32.67
2023-02-18T07:23:56.264Z,23.30
2023-02-18T07:26:22.724Z,29.65
2023-02-18T07:28:49.182Z,27.60
2023-02-18T07:31:15.860Z,29.20
2023-02-18T07:33:42.258Z,32.97
2023-02-18T07:36:09.469Z,29.43
2023-02-18T07:38:36.064Z,27.60
2023-02-18T07:41:02.509Z,26.65
2023-02-18T07:43:29.004Z,28.58
2023-02-18T07:45:55.477Z,19.23
2023-02-18T07:48:21.874Z,17.47
2023-02-18T07:50:48.288Z,18.92
2023-02-18T07:53:16.378Z,19.52
2023-02-18T07:55:43.047Z,22.70
2023-02-18T07:58:09.312Z,20.38
2023-02-18T08:00:35.805Z,19.03
2023-02-18T08:03:02.176Z,21.20
2023-02-18T08:05:28.523Z,19.58
2023-02-18T08:07:54.924Z,16.10
2023-02-18T08:10:21.411Z,27.25
2023-02-18T08:12:47.900Z,21.67
2023-02-18T08:15:14.428Z,26.65
2023-02-18T08:17:40.856Z,21.35
2023-02-18T08:20:07.668Z,18.60
2023-02-18T08:22:34.038Z,18.60
2023-02-18T08:25:00.412Z,17.60
2023-02-18T08:27:26.748Z,18.63
2023-02-18T08:29:53.183Z,16.35
2023-02-18T08:32:19.628Z,19.20
2023-02-18T08:34:46.183Z,16.98
2023-02-18T08:37:12.950Z,21.20
2023-02-18T08:39:40.000Z,18.42
2023-02-18T08:42:06.652Z,16.90
2023-02-18T08:44:33.076Z,25.08
2023-02-18T08:46:59.341Z,22.13
2023-02-18T08:49:25.857Z,21.87
2023-02-18T08:51:53.121Z,15.32
2023-02-18T08:54:19.616Z,14.85
2023-02-18T08:56:46.076Z,18.80
2023-02-18T08:59:12.462Z,11.70
2023-02-18T09:01:38.847Z,14.67
2023-02-18T09:04:05.406Z,19.45
2023-02-18T09:06:32.458Z,15.57
2023-02-18T09:08:58.875Z,18.70
2023-02-18T09:11:25.241Z,23.40
2023-02-18T09:13:51.643Z,20.23
2023-02-18T09:16:19.452Z,22.02
2023-02-18T09:18:47.201Z,19.55
2023-02-18T09:21:15.113Z,15.00
2023-02-18T09:23:41.823Z,20.55
2023-02-18T09:26:12.805Z,18.77
2023-02-18T09:28:39.198Z,16.95
2023-02-18T09:31:13.617Z,14.45
2023-02-18T09:33:44.799Z,21.20
2023-02-18T09:36:12.285Z,16.77
2023-02-18T09:38:38.646Z,32.80
2023-02-18T09:41:13.863Z,17.58
2023-02-18T09:43:43.494Z,17.17
2023-02-18T09:46:19.906Z,16.42
2023-02-18T09:48:48.368Z,16.27
2023-02-18T09:51:16.934Z,15.23
2023-02-18T09:53:44.477Z,18.42
2023-02-18T09:56:26.303Z,19.65
2023-02-18T09:58:53.846Z,16.73
2023-02-18T10:01:24.954Z,23.25
2023-02-18T10:03:53.641Z,20.90
2023-02-18T10:06:27.211Z,17.80
2023-02-18T10:08:55.421Z,17.10
2023-02-18T10:11:37.835Z,21.85
2023-02-18T10:14:10.895Z,14.82
2023-02-18T10:16:37.690Z,19.47
2023-02-18T10:19:15.044Z,14.82
2023-02-18T10:21:42.250Z,9.18
2023-02-18T10:24:27.177Z,18.42
2023-02-18T10:26:54.346Z,15.18
2023-02-18T10:29:22.060Z,15.73
2023-02-18T10:32:01.190Z,14.48
2023-02-18T10:34:39.943Z,15.63
2023-02-18T10:37:28.955Z,17.05
2023-02-18T10:40:25.696Z,17.10
2023-02-18T10:43:10.650Z,16.07
2023-02-18T10:45:42.854Z,20.63
2023-02-18T10:48:21.813Z,16.50
2023-02-18T10:50:49.385Z,17.23
2023-02-18T10:53:38.850Z,15.13
2023-02-18T10:56:07.031Z,25.77
2023-02-18T10:58:36.479Z,15.18
2023-02-18T11:01:13.246Z,16.23
2023-02-18T11:03:46.577Z,13.82
2023-02-18T11:06:33.892Z,14.60
2023-02-18T11:09:00.521Z,13.33
2023-02-18T11:11:34.081Z,20.23
2023-02-18T11:14:02.921Z,12.80
2023-02-18T11:16:46.740Z,13.65
2023-02-18T11:19:42.543Z,16.13
2023-02-18T11:22:14.410Z,15.53
2023-02-18T11:24:40.864Z,14.70
2023-02-18T11:27:14.678Z,17.25
2023-02-18T11:29:41.203Z,11.95
2023-02-18T11:32:12.236Z,13.38
2023-02-18T11:34:42.807Z,15.87
2023-02-18T11:37:12.043Z,15.63
2023-02-18T11:39:43.964Z,13.73
2023-02-18T11:42:15.246Z,13.93
2023-02-18T11:44:48.722Z,13.85
2023-02-18T11:47:15.060Z,17.37
2023-02-18T11:49:43.594Z,14.18
2023-02-18T11:52:27.876Z,14.40
2023-02-18T11:55:08.367Z,12.15
2023-02-18T11:57:39.401Z,15.27
2023-02-18T12:00:23.299Z,12.23
2023-02-18T12:02:52.804Z,14.45
2023-02-18T12:05:27.596Z,14.57
2023-02-18T12:08:06.963Z,10.20
2023-02-18T12:10:33.261Z,12.38
2023-02-18T12:12:59.657Z,18.07
2023-02-18T12:15:40.510Z,14.43
2023-02-18T12:18:42.932Z,10.50
2023-02-18T12:21:21.221Z,8.15
2023-02-18T12:23:53.585Z,14.15
2023-02-18T12:26:26.947Z,13.73
2023-02-18T12:29:03.082Z,7.95
2023-02-18T12:31:53.250Z,11.63
2023-02-18T12:34:37.385Z,10.85
2023-02-18T12:37:09.694Z,12.45
2023-02-18T12:40:00.058Z,8.23
2023-02-18T12:42:29.127Z,13.77
2023-02-18T12:45:17.867Z,11.45
2023-02-18T12:48:04.296Z,12.07
2023-02-18T12:50:55.746Z,13.40
2023-02-18T12:53:29.088Z,13.33
2023-02-18T12:56:05.264Z,8.52
2023-02-18T12:59:09.470Z,11.38
2023-02-18T13:01:50.429Z,8.95
2023-02-18T13:04:36.781Z,9.52
2023-02-18T13:07:08.992Z,13.43
2023-02-18T13:10:20.034Z,7.18
2023-02-18T13:13:16.378Z,8.00
2023-02-18T13:16:13.753Z,13.27
2023-02-18T13:18:45.423Z,9.63
2023-02-18T13:21:16.679Z,9.97
2023-02-18T13:23:53.137Z,13.40
2023-02-18T13:26:21.962Z,8.88
2023-02-18T13:29:06.693Z,8.80
2023-02-18T13:31:57.748Z,11.38
2023-02-18T13:34:36.525Z,14.10
2023-02-18T13:37:08.791Z,18.20
2023-02-18T13:39:36.152Z,13.45
2023-02-18T13:42:31.994Z,9.60
2023-02-18T13:44:58.357Z,10.20
2023-02-18T13:47:41.503Z,8.97
2023-02-18T13:50:41.846Z,11.45
2023-02-18T13:53:08.160Z,9.45
2023-02-18T13:55:46.932Z,19.30
2023-02-18T13:58:19.147Z,16.63
2023-02-18T14:00:53.747Z,9.37
2023-02-18T14:03:51.325Z,8.52
2023-02-18T14:06:30.654Z,12.52
2023-02-18T14:09:14.236Z,9.13
2023-02-18T14:11:47.420Z,11.50
2023-02-18T14:14:25.611Z,12.13
2023-02-18T14:17:13.829Z,8.68
2023-02-18T14:19:40.375Z,14.50
2023-02-18T14:22:31.797Z,7.30
2023-02-18T14:25:03.955Z,11.65
2023-02-18T14:27:30.416Z,10.27
2023-02-18T14:30:04.855Z,10.18
2023-02-18T14:32:31.454Z,11.35
2023-02-18T14:35:20.440Z,18.50
2023-02-18T14:38:03.349Z,8.18
2023-02-18T14:40:58.137Z,12.03
2023-02-18T14:43:39.374Z,7.75
2023-02-18T14:46:19.724Z,9.15
2023-02-18T14:49:01.048Z,14.10
2023-02-18T14:51:30.434Z,10.63
2023-02-18T14:54:02.611Z,10.40
2023-02-18T14:56:29.144Z,14.40
2023-02-18T14:58:59.914Z,11.60
2023-02-18T15:01:35.002Z,12.07
2023-02-18T15:04:02.889Z,9.75
2023-02-18T15:06:35.027Z,5.97
2023-02-18T15:09:23.098Z,9.75
2023-02-18T15:11:54.854Z,18.67
2023-02-18T15:14:25.370Z,12.63
2023-02-18T15:16:51.965Z,8.30
2023-02-18T15:19:26.047Z,15.50
2023-02-18T15:21:55.316Z,11.07
2023-02-18T15:24:21.608Z,12.25
2023-02-18T15:26:49.497Z,7.75
2023-02-18T15:29:20.286Z,8.95
2023-02-18T15:31:48.196Z,9.60
2023-02-18T15:34:30.876Z,11.93
2023-02-18T15:36:59.699Z,9.95
2023-02-18T15:39:26.702Z,11.38
2023-02-18T15:41:55.355Z,15.13
2023-02-18T15:44:27.562Z,8.20
2023-02-18T15:46:54.704Z,12.10
2023-02-18T15:49:24.396Z,10.52
2023-02-18T15:51:55.819Z,14.07
2023-02-18T15:54:23.450Z,11.23
2023-02-18T15:56:53.343Z,8.10
2023-02-18T15:59:33.061Z,6.28
2023-02-18T16:02:08.564Z,6.00
2023-02-18T16:04:39.825Z,9.88
2023-02-18T16:07:37.212Z,15.95
2023-02-18T16:10:15.501Z,12.23
2023-02-18T16:12:46.718Z,12.57
2023-02-18T16:15:23.202Z,15.52
2023-02-18T16:17:49.624Z,8.43
2023-02-18T16:20:31.372Z,12.80
2023-02-18T16:23:11.676Z,8.27
2023-02-18T16:25:44.388Z,7.70
2023-02-18T16:28:22.131Z,9.07
2023-02-18T16:30:48.585Z,9.00
2023-02-18T16:33:15.363Z,9.38
2023-02-18T16:35:49.447Z,11.43
2023-02-18T16:38:20.133Z,13.52
2023-02-18T16:40:47.211Z,9.75
2023-02-18T16:43:31.489Z,11.15
2023-02-18T16:45:59.410Z,15.30
2023-02-18T16:48:41.770Z,9.43
2023-02-18T16:51:16.619Z,11.43
2023-02-18T16:53:43.401Z,12.32
2023-02-18T16:56:19.341Z,17.48
2023-02-18T16:58:46.070Z,9.65
2023-02-18T17:01:36.903Z,11.27
2023-02-18T17:04:04.937Z,12.77
2023-02-18T17:06:32.250Z,15.25
2023-02-18T17:09:00.273Z,13.63
2023-02-18T17:11:33.654Z,13.38
2023-02-18T17:14:00.426Z,13.43
2023-02-18T17:16:28.030Z,15.68
2023-02-18T17:18:54.510Z,11.57
2023-02-18T17:21:24.037Z,12.40
2023-02-18T17:23:50.837Z,12.90
2023-02-18T17:26:19.166Z,14.97
2023-02-18T17:28:46.253Z,15.63
2023-02-18T17:31:18.994Z,17.80
2023-02-18T17:33:46.849Z,10.82
2023-02-18T17:36:13.339Z,14.70
2023-02-18T17:38:39.885Z,20.30
2023-02-18T17:41:07.249Z,12.98
2023-02-18T17:43:34.335Z,14.43
2023-02-18T17:46:00.812Z,14.93
2023-02-18T17:48:27.331Z,18.42
2023-02-18T17:50:53.870Z,14.93
2023-02-18T17:53:20.912Z,19.23
2023-02-18T17:55:48.262Z,27.70
2023-02-18T17:58:15.326Z,20.00
2023-02-18T18:00:54.059Z,16.75
2023-02-18T18:03:20.583Z,21.27
2023-02-18T18:05:49.302Z,22.77
2023-02-18T18:08:16.057Z,28.83
2023-02-18T18:10:57.787Z,29.80
2023-02-18T18:13:26.893Z,16.25
2023-02-18T18:15:54.796Z,21.33
2023-02-18T18:18:22.142Z,17.50
2023-02-18T18:20:53.018Z,27.90
2023-02-18T18:23:21.523Z,19.77
2023-02-18T18:25:52.206Z,23.85
2023-02-18T18:28:19.560Z,22.83
2023-02-18T18:30:48.014Z,30.85
2023-02-18T18:33:23.675Z,23.88
2023-02-18T18:35:52.107Z,26.65
2023-02-18T18:38:19.585Z,38.80
2023-02-18T18:40:46.607Z,32.20
2023-02-18T18:43:20.065Z,27.65
2023-02-18T18:45:46.885Z,30.52
2023-02-18T18:48:13.327Z,31.80
2023-02-18T18:50:39.947Z,31.02
2023-02-18T18:53:06.871Z,30.03
2023-02-18T18:55:37.599Z,35.35
2023-02-18T18:58:04.656Z,30.63
2023-02-18T19:00:34.527Z,28.13
2023-02-18T19:03:03.195Z,39.72
2023-02-18T19:05:35.965Z,48.43
2023-02-18T19:08:03.034Z,33.25
2023-02-18T19:10:41.705Z,31.50
2023-02-18T19:13:11.242Z,30.27
2023-02-18T19:15:37.617Z,34.78
2023-02-18T19:18:04.439Z,31.50
2023-02-18T19:20:32.904Z,33.70
2023-02-18T19:22:59.343Z,33.58
2023-02-18T19:25:25.898Z,29.55
2023-02-18T19:27:52.267Z,28.20
2023-02-18T19:30:29.836Z,33.33
2023-02-18T19:32:58.552Z,30.40
2023-02-18T19:35:27.297Z,38.78
2023-02-18T19:37:53.947Z,37.88
2023-02-18T19:40:29.118Z,28.65
2023-02-18T19:42:55.842Z,30.30
2023-02-18T19:45:23.017Z,31.58
2023-02-18T19:47:58.551Z,33.55
2023-02-18T19:50:26.611Z,33.00
2023-02-18T19:52:56.843Z,30.65
2023-02-18T19:55:23.478Z,29.73
2023-02-18T19:57:50.613Z,31.15
2023-02-18T20:00:19.013Z,31.00
2023-02-18T20:02:46.728Z,34.53
2023-02-18T20:05:13.890Z,34.45
2023-02-18T20:07:41.290Z,27.17
2023-02-18T20:10:11.319Z,30.13
2023-02-18T20:12:38.072Z,33.08
2023-02-18T20:15:04.838Z,28.55
2023-02-18T20:17:31.277Z,35.03
2023-02-18T20:19:57.621Z,35.07
2023-02-18T20:22:23.999Z,35.67
2023-02-18T20:24:50.378Z,29.40
2023-02-18T20:27:16.814Z,36.13
2023-02-18T20:29:43.182Z,29.25
2023-02-18T20:32:09.576Z,30.27
2023-02-18T20:34:35.989Z,29.85
2023-02-18T20:37:02.401Z,33.10
2023-02-18T20:39:28.825Z,25.38
2023-02-18T20:41:56.813Z,23.98
2023-02-18T20:44:24.286Z,24.47
2023-02-18T20:46:50.626Z,19.92
2023-02-18T20:49:19.408Z,15.40
2023-02-18T20:51:45.962Z,21.65
2023-02-18T20:54:15.006Z,21.08
2023-02-18T20:56:43.429Z,16.60
2023-02-18T20:59:16.322Z,23.98
2023-02-18T21:01:44.110Z,20.08
2023-02-18T21:04:12.396Z,23.23
2023-02-18T21:06:38.809Z,27.70
2023-02-18T21:09:05.964Z,26.10
2023-02-18T21:11:32.534Z,29.00
2023-02-18T21:13:59.136Z,27.02
2023-02-18T21:16:27.561Z,27.75
2023-02-18T21:18:54.447Z,24.85
2023-02-18T21:21:21.274Z,32.03
2023-02-18T21:23:47.650Z,32.75
2023-02-18T21:26:17.502Z,32.40
2023-02-18T21:28:50.650Z,33.65
2023-02-18T21:31:19.658Z,28.00
2023-02-18T21:33:46.463Z,32.07
2023-02-18T21:36:14.213Z,31.20
2023-02-18T21:38:40.807Z,29.10
2023-02-18T21:41:07.287Z,32.33
2023-02-18T21:43:33.784Z,29.17
2023-02-18T21:46:13.365Z,31.80
2023-02-18T21:48:40.285Z,29.55
2023-02-18T21:51:06.576Z,35.97
2023-02-18T21:53:32.926Z,27.67
2023-02-18T21:56:08.965Z,31.05
2023-02-18T21:58:35.301Z,32.33
2023-02-18T22:01:01.637Z,28.35
2023-02-18T22:03:27.949Z,27.58
2023-02-18T22:05:54.294Z,29.83
2023-02-18T22:08:20.583Z,31.20
2023-02-18T22:10:46.868Z,36.43
2023-02-18T22:13:13.248Z,27.15
2023-02-18T22:15:41.947Z,35.15
2023-02-18T22:18:08.500Z,30.83
2023-02-18T22:20:34.808Z,32.05
2023-02-18T22:23:01.529Z,28.53
2023-02-18T22:25:27.817Z,28.55
2023-02-18T22:27:54.086Z,29.27
2023-02-18T22:30:20.499Z,30.75
2023-02-18T22:32:46.809Z,27.38
2023-02-18T22:35:14.956Z,25.50
2023-02-18T22:37:42.001Z,25.67
2023-02-18T22:40:08.767Z,31.73
2023-02-18T22:42:35.096Z,26.13
2023-02-18T22:45:01.399Z,34.30
2023-02-18T22:47:28.024Z,24.40
2023-02-18T22:49:54.429Z,24.58
2023-02-18T22:52:20.885Z,22.45
2023-02-18T22:54:47.282Z,29.38
2023-02-18T22:57:13.663Z,21.92
2023-02-18T22:59:40.024Z,22.37
2023-02-18T23:02:06.478Z,23.35
2023-02-18T23:04:32.988Z,16.08
2023-02-18T23:06:59.348Z,23.00
2023-02-18T23:09:26.028Z,26.55
2023-02-18T23:11:54.325Z,15.00
2023-02-18T23:14:21.059Z,19.75
2023-02-18T23:16:53.906Z,16.88
2023-02-18T23:19:20.722Z,19.17
2023-02-18T23:21:47.223Z,24.50
2023-02-18T23:24:13.540Z,15.90
2023-02-18T23:26:39.862Z,18.55
2023-02-18T23:29:06.587Z,20.95
2023-02-18T23:31:33.743Z,20.15
2023-02-18T23:34:01.336Z,19.25
2023-02-18T23:36:29.699Z,21.30
2023-02-18T23:38:58.560Z,15.55
2023-02-18T23:41:26.173Z,19.40
2023-02-18T23:43:52.736Z,17.15
2023-02-18T23:46:20.976Z,15.43
2023-02-18T23:48:48.265Z,15.07
2023-02-18T23:51:17.584Z,17.00
2023-02-18T23:53:44.326Z,23.45
2023-02-18T23:56:14.902Z,19.30
2023-02-18T23:58:43.200Z,18.90
